createdAt,value
2022-11-24T00:01:24.627Z,15.52
2022-11-24T00:03:57.849Z,19.63
2022-11-24T00:06:25.787Z,18.17
2022-11-24T00:08:52.998Z,22.05
2022-11-24T00:11:26.933Z,18.20
2022-11-24T00:13:54.661Z,20.20
2022-11-24T00:16:24.770Z,17.10
2022-11-24T00:18:54.632Z,16.50
2022-11-24T00:21:22.164Z,16.95
2022-11-24T00:23:50.026Z,18.38
2022-11-24T00:26:18.878Z,19.95
2022-11-24T00:28:48.031Z,20.02
2022-11-24T00:31:20.938Z,19.67
2022-11-24T00:33:49.263Z,19.23
2022-11-24T00:36:17.742Z,18.05
2022-11-24T00:38:45.938Z,22.15
2022-11-24T00:41:13.425Z,26.88
2022-11-24T00:43:41.099Z,25.88
2022-11-24T00:46:08.089Z,27.15
2022-11-24T00:48:35.075Z,30.17
2022-11-24T00:51:05.734Z,28.20
2022-11-24T00:53:32.950Z,27.25
2022-11-24T00:56:04.109Z,28.15
2022-11-24T00:58:31.868Z,25.83
2022-11-24T01:01:12.017Z,30.98
2022-11-24T01:03:41.204Z,32.17
2022-11-24T01:06:19.627Z,34.30
2022-11-24T01:08:47.243Z,33.70
2022-11-24T01:11:21.198Z,32.30
2022-11-24T01:13:52.175Z,32.08
2022-11-24T01:16:23.970Z,29.98
2022-11-24T01:18:51.421Z,32.35
2022-11-24T01:21:19.638Z,35.13
2022-11-24T01:23:46.998Z,34.40
2022-11-24T01:26:20.197Z,34.35
2022-11-24T01:28:48.007Z,34.65
2022-11-24T01:31:16.968Z,34.70
2022-11-24T01:33:44.483Z,33.72
2022-11-24T01:36:11.748Z,33.72
2022-11-24T01:38:38.965Z,34.38
2022-11-24T01:41:10.784Z,32.45
2022-11-24T01:43:38.318Z,31.00
2022-11-24T01:46:17.459Z,30.05
2022-11-24T01:48:49.708Z,27.67
2022-11-24T01:51:23.407Z,28.05
2022-11-24T01:53:57.494Z,28.05
2022-11-24T01:56:25.718Z,29.60
2022-11-24T01:58:57.860Z,29.75
2022-11-24T02:01:25.774Z,28.65
2022-11-24T02:03:53.683Z,29.90
2022-11-24T02:06:25.397Z,27.48
2022-11-24T02:09:00.400Z,28.77
2022-11-24T02:11:31.012Z,27.23
2022-11-24T02:13:58.199Z,28.30
2022-11-24T02:16:26.334Z,27.02
2022-11-24T02:18:53.900Z,28.42
2022-11-24T02:21:20.742Z,27.77
2022-11-24T02:23:54.290Z,27.95
2022-11-24T02:26:41.746Z,27.55
2022-11-24T02:29:10.725Z,27.35
2022-11-24T02:31:40.212Z,27.50
2022-11-24T02:34:07.317Z,30.45
2022-11-24T02:36:34.147Z,29.95
2022-11-24T02:39:01.011Z,30.00
2022-11-24T02:41:29.188Z,34.35
2022-11-24T02:44:00.186Z,29.33
2022-11-24T02:46:27.479Z,30.40
2022-11-24T02:48:54.363Z,32.80
2022-11-24T02:51:21.287Z,32.35
2022-11-24T02:53:48.162Z,31.42
2022-11-24T02:56:15.104Z,32.13
2022-11-24T02:58:41.960Z,32.67
2022-11-24T03:01:08.838Z,31.83
2022-11-24T03:03:35.899Z,31.85
2022-11-24T03:06:02.790Z,30.13
2022-11-24T03:08:29.734Z,33.17
2022-11-24T03:10:56.541Z,31.95
2022-11-24T03:13:23.558Z,32.75
2022-11-24T03:15:50.438Z,26.20
2022-11-24T03:18:17.353Z,32.63
2022-11-24T03:23:11.504Z,28.98
2022-11-24T03:25:38.410Z,28.60
2022-11-24T03:28:05.246Z,26.17
2022-11-24T03:30:32.218Z,27.33
2022-11-24T03:32:59.080Z,36.20
2022-11-24T03:35:26.125Z,26.48
2022-11-24T03:37:52.963Z,29.33
2022-11-24T03:40:20.018Z,31.38
2022-11-24T03:42:46.859Z,31.60
2022-11-24T03:48:00.537Z,29.53
2022-11-24T03:50:27.385Z,30.92
2022-11-24T03:52:54.198Z,30.75
2022-11-24T03:55:21.058Z,33.20
2022-11-24T03:57:48.035Z,28.08
2022-11-24T04:00:15.354Z,24.52
2022-11-24T04:02:42.280Z,19.45
2022-11-24T04:05:10.080Z,17.80
2022-11-24T04:07:36.918Z,18.20
2022-11-24T04:10:04.357Z,20.70
2022-11-24T04:12:46.802Z,16.45
2022-11-24T04:15:19.231Z,15.73
2022-11-24T04:17:48.744Z,17.83
2022-11-24T04:20:16.657Z,18.60
2022-11-24T04:22:44.175Z,16.10
2022-11-24T04:25:11.471Z,16.88
2022-11-24T04:27:39.148Z,18.40
2022-11-24T04:30:07.259Z,16.70
2022-11-24T04:32:35.327Z,15.20
2022-11-24T04:35:02.303Z,18.23
2022-11-24T04:37:29.570Z,16.02
2022-11-24T04:42:24.563Z,14.95
2022-11-24T04:44:51.414Z,16.52
2022-11-24T04:47:23.447Z,15.75
2022-11-24T04:49:51.417Z,16.58
2022-11-24T04:52:20.384Z,15.52
2022-11-24T04:54:48.936Z,14.95
2022-11-24T04:57:20.896Z,17.30
2022-11-24T04:59:50.077Z,16.38
2022-11-24T05:02:17.447Z,18.95
2022-11-24T05:04:44.956Z,17.67
2022-11-24T05:07:17.939Z,16.20
2022-11-24T05:10:05.199Z,16.38
2022-11-24T05:12:32.580Z,15.93
2022-11-24T05:15:00.596Z,19.05
2022-11-24T05:17:33.257Z,18.63
2022-11-24T05:20:00.821Z,18.55
2022-11-24T05:22:29.289Z,17.90
2022-11-24T05:24:57.420Z,19.40
2022-11-24T05:27:24.581Z,20.80
2022-11-24T05:29:51.772Z,19.67
2022-11-24T05:34:45.889Z,21.92
2022-11-24T05:39:39.450Z,24.35
2022-11-24T05:42:26.081Z,25.35
2022-11-24T05:44:53.783Z,27.75
2022-11-24T05:47:21.452Z,28.92
2022-11-24T05:49:48.343Z,28.00
2022-11-24T05:52:16.490Z,28.15
2022-11-24T05:54:43.412Z,27.92
2022-11-24T05:57:10.252Z,27.85
2022-11-24T05:59:37.207Z,28.75
2022-11-24T06:02:04.151Z,27.67
2022-11-24T06:04:32.442Z,27.20
2022-11-24T06:07:00.152Z,30.50
2022-11-24T06:09:27.689Z,30.08
2022-11-24T06:11:54.696Z,27.55
2022-11-24T06:14:22.004Z,26.30
2022-11-24T06:16:49.093Z,26.60
2022-11-24T06:19:15.937Z,24.67
2022-11-24T06:21:43.698Z,22.95
2022-11-24T06:24:10.515Z,20.75
2022-11-24T06:26:38.421Z,19.85
2022-11-24T06:29:05.459Z,22.83
2022-11-24T06:31:32.607Z,25.20
2022-11-24T06:34:00.852Z,26.90
2022-11-24T06:36:28.178Z,27.70
2022-11-24T06:38:55.033Z,27.83
2022-11-24T06:41:21.825Z,32.47
2022-11-24T06:43:49.720Z,24.33
2022-11-24T06:46:16.602Z,24.77
2022-11-24T06:48:43.724Z,24.88
2022-11-24T06:53:41.103Z,24.35
2022-11-24T06:56:15.634Z,20.63
2022-11-24T06:58:47.456Z,18.48
2022-11-24T07:01:20.125Z,17.52
2022-11-24T07:03:48.344Z,16.58
2022-11-24T07:06:16.022Z,17.55
2022-11-24T07:08:43.622Z,17.85
2022-11-24T07:11:15.878Z,19.73
2022-11-24T07:13:43.747Z,21.75
2022-11-24T07:16:20.433Z,22.05
2022-11-24T07:18:49.356Z,20.83
2022-11-24T07:21:16.508Z,17.92
2022-11-24T07:23:45.631Z,15.50
2022-11-24T07:26:12.452Z,15.55
2022-11-24T07:28:39.565Z,14.63
2022-11-24T07:31:15.619Z,15.50
2022-11-24T07:33:42.793Z,17.23
2022-11-24T07:36:10.012Z,16.20
2022-11-24T07:38:37.759Z,16.73
2022-11-24T07:41:07.361Z,17.67
2022-11-24T07:43:36.778Z,17.08
2022-11-24T07:46:05.705Z,16.90
2022-11-24T07:48:33.894Z,17.23
2022-11-24T07:51:04.721Z,17.75
2022-11-24T07:53:33.296Z,19.02
2022-11-24T07:56:02.439Z,19.35
2022-11-24T07:58:33.021Z,22.92
2022-11-24T08:01:09.126Z,23.73
2022-11-24T08:03:36.499Z,26.23
2022-11-24T08:08:51.310Z,25.75
2022-11-24T08:11:18.410Z,27.98
2022-11-24T08:13:45.984Z,29.40
2022-11-24T08:16:15.832Z,30.27
2022-11-24T08:18:44.242Z,27.90
2022-11-24T08:21:14.006Z,31.63
2022-11-24T08:23:42.589Z,35.00
2022-11-24T08:26:16.780Z,34.00
2022-11-24T08:28:46.040Z,25.70
2022-11-24T08:31:21.416Z,27.10
2022-11-24T08:33:50.299Z,24.80
2022-11-24T08:36:19.111Z,25.45
2022-11-24T08:38:47.221Z,26.27
2022-11-24T08:41:17.341Z,26.05
2022-11-24T08:43:44.884Z,29.05
2022-11-24T08:46:17.369Z,30.00
2022-11-24T08:48:50.352Z,30.70
2022-11-24T08:51:20.869Z,32.05
2022-11-24T08:53:47.796Z,26.75
2022-11-24T08:56:15.723Z,28.88
2022-11-24T08:58:42.727Z,27.35
2022-11-24T09:01:16.114Z,29.52
2022-11-24T09:03:49.900Z,31.85
2022-11-24T09:06:19.763Z,31.92
2022-11-24T09:08:46.594Z,33.00
2022-11-24T09:11:15.630Z,31.52
2022-11-24T09:13:42.945Z,33.53
2022-11-24T09:16:18.343Z,28.90
2022-11-24T09:18:45.528Z,28.73
2022-11-24T09:21:14.005Z,29.30
2022-11-24T09:23:41.749Z,22.75
2022-11-24T09:26:11.873Z,20.83
2022-11-24T09:28:39.150Z,20.55
2022-11-24T09:31:08.143Z,18.40
2022-11-24T09:33:35.421Z,18.73
2022-11-24T09:36:02.585Z,19.80
2022-11-24T09:38:29.586Z,24.40
2022-11-24T09:41:06.175Z,31.65
2022-11-24T09:43:43.180Z,29.70
2022-11-24T09:46:20.412Z,28.40
2022-11-24T09:51:17.682Z,22.52
2022-11-24T09:53:47.353Z,23.25
2022-11-24T09:56:26.463Z,17.50
2022-11-24T09:59:05.366Z,22.05
2022-11-24T10:01:37.901Z,17.20
2022-11-24T10:04:21.111Z,17.38
2022-11-24T10:06:56.675Z,11.35
2022-11-24T10:09:33.157Z,15.60
2022-11-24T10:12:21.515Z,9.40
2022-11-24T10:14:55.526Z,7.03
2022-11-24T10:17:49.697Z,4.20
2022-11-24T10:20:39.411Z,4.07
2022-11-24T10:23:46.089Z,4.18
2022-11-24T10:26:34.197Z,4.75
2022-11-24T10:29:10.951Z,6.43
2022-11-24T10:31:42.983Z,14.77
2022-11-24T10:34:10.399Z,25.65
2022-11-24T10:36:40.670Z,23.50
2022-11-24T10:39:15.171Z,20.83
2022-11-24T10:42:01.222Z,14.88
2022-11-24T10:44:30.017Z,17.70
2022-11-24T10:46:56.830Z,19.77
2022-11-24T10:49:31.365Z,19.38
2022-11-24T10:52:14.377Z,19.92
2022-11-24T10:54:59.521Z,18.52
2022-11-24T10:57:31.487Z,20.27
2022-11-24T10:59:58.736Z,19.50
2022-11-24T11:02:38.383Z,18.98
2022-11-24T11:05:42.434Z,18.33
2022-11-24T11:08:28.074Z,17.00
2022-11-24T11:11:16.601Z,16.63
2022-11-24T11:14:03.426Z,15.40
2022-11-24T11:17:00.650Z,17.23
2022-11-24T11:20:00.089Z,13.40
2022-11-24T11:22:31.667Z,14.45
2022-11-24T11:25:28.734Z,13.52
2022-11-24T11:28:26.824Z,13.82
2022-11-24T11:31:18.567Z,12.63
2022-11-24T11:34:06.300Z,12.65
2022-11-24T11:36:42.108Z,11.57
2022-11-24T11:39:16.891Z,10.43
2022-11-24T11:41:49.915Z,9.80
2022-11-24T11:44:32.461Z,11.18
2022-11-24T11:47:05.672Z,11.15
2022-11-24T11:49:32.692Z,11.55
2022-11-24T11:52:27.646Z,13.90
2022-11-24T11:55:15.835Z,12.75
2022-11-24T11:58:22.778Z,11.43
2022-11-24T12:01:34.186Z,14.55
2022-11-24T12:04:35.808Z,13.23
2022-11-24T12:07:24.774Z,12.93
2022-11-24T12:10:03.427Z,13.45
2022-11-24T12:12:47.411Z,12.23
2022-11-24T12:15:26.181Z,12.82
2022-11-24T12:18:04.425Z,12.40
2022-11-24T12:20:43.300Z,12.60
2022-11-24T12:23:23.657Z,11.88
2022-11-24T12:26:23.624Z,13.18
2022-11-24T12:29:09.236Z,14.80
2022-11-24T12:31:36.115Z,14.32
2022-11-24T12:34:18.161Z,15.13
2022-11-24T12:37:26.643Z,14.07
2022-11-24T12:40:13.678Z,12.63
2022-11-24T12:43:37.840Z,12.48
2022-11-24T12:46:23.990Z,6.53
2022-11-24T12:49:16.972Z,6.00
2022-11-24T12:51:49.481Z,5.47
2022-11-24T12:54:20.308Z,4.65
2022-11-24T12:57:02.619Z,4.70
2022-11-24T12:59:44.077Z,4.35
2022-11-24T13:02:29.025Z,5.20
2022-11-24T13:05:05.226Z,3.85
2022-11-24T13:07:47.985Z,5.05
2022-11-24T13:10:46.510Z,4.43
2022-11-24T13:13:12.989Z,3.83
2022-11-24T13:16:34.452Z,5.00
2022-11-24T13:19:14.915Z,5.05
2022-11-24T13:21:42.923Z,6.07
2022-11-24T13:24:19.986Z,4.43
2022-11-24T13:26:50.103Z,4.70
2022-11-24T13:29:35.624Z,4.93
2022-11-24T13:32:02.467Z,3.83
2022-11-24T13:34:42.909Z,4.15
2022-11-24T13:37:32.029Z,4.53
2022-11-24T13:40:11.999Z,4.60
2022-11-24T13:42:57.905Z,4.20
2022-11-24T13:45:40.298Z,5.00
2022-11-24T13:48:20.948Z,7.55
2022-11-24T13:50:53.500Z,9.23
2022-11-24T13:53:39.339Z,8.55
2022-11-24T13:56:11.383Z,7.97
2022-11-24T13:59:01.897Z,4.65
2022-11-24T14:01:33.152Z,3.53
2022-11-24T14:07:05.548Z,7.63
2022-11-24T14:09:47.652Z,6.18
2022-11-24T14:12:20.425Z,6.82
2022-11-24T14:14:49.433Z,5.80
2022-11-24T14:17:17.983Z,4.30
2022-11-24T14:19:50.961Z,4.30
2022-11-24T14:22:22.182Z,4.82
2022-11-24T14:24:54.819Z,4.43
2022-11-24T14:27:38.233Z,4.38
2022-11-24T14:30:08.326Z,4.22
2022-11-24T14:32:35.376Z,5.18
2022-11-24T14:35:02.645Z,5.60
2022-11-24T14:37:29.720Z,4.55
2022-11-24T14:39:56.645Z,4.93
2022-11-24T14:42:27.491Z,5.22
2022-11-24T14:44:59.129Z,5.93
2022-11-24T14:47:33.871Z,5.78
2022-11-24T14:50:12.387Z,6.50
2022-11-24T14:52:52.645Z,5.85
2022-11-24T14:55:35.374Z,5.88
2022-11-24T14:58:02.594Z,3.88
2022-11-24T15:00:31.912Z,5.28
2022-11-24T15:03:16.086Z,3.42
2022-11-24T15:05:58.659Z,4.13
2022-11-24T15:08:27.882Z,3.83
2022-11-24T15:11:03.195Z,3.85
2022-11-24T15:13:37.332Z,3.78
2022-11-24T15:16:15.947Z,5.38
2022-11-24T15:18:46.639Z,4.13
2022-11-24T15:21:18.922Z,4.28
2022-11-24T15:24:06.471Z,5.35
2022-11-24T15:26:38.494Z,8.40
2022-11-24T15:29:10.502Z,11.10
2022-11-24T15:31:38.544Z,11.10
2022-11-24T15:34:06.212Z,13.20
2022-11-24T15:36:33.618Z,14.70
2022-11-24T15:39:00.706Z,11.52
2022-11-24T15:41:32.861Z,11.20
2022-11-24T15:44:03.448Z,9.18
2022-11-24T15:46:38.277Z,9.60
2022-11-24T15:49:07.395Z,8.20
2022-11-24T15:51:38.056Z,9.95
2022-11-24T15:54:07.687Z,10.20
2022-11-24T15:56:36.971Z,9.70
2022-11-24T15:59:04.589Z,9.50
2022-11-24T16:01:33.917Z,8.00
2022-11-24T16:04:02.535Z,9.98
2022-11-24T16:06:29.916Z,7.75
2022-11-24T16:08:58.502Z,5.90
2022-11-24T16:11:25.966Z,11.95
2022-11-24T16:13:54.323Z,10.93
2022-11-24T16:16:25.021Z,13.75
2022-11-24T16:18:52.602Z,11.75
2022-11-24T16:21:19.904Z,12.25
2022-11-24T16:23:48.245Z,9.65
2022-11-24T16:26:15.137Z,14.40
2022-11-24T16:28:43.007Z,15.98
2022-11-24T16:31:10.126Z,12.93
2022-11-24T16:33:40.726Z,16.73
2022-11-24T16:36:08.577Z,14.75
2022-11-24T16:38:36.225Z,11.30
2022-11-24T16:41:03.128Z,7.93
2022-11-24T16:43:30.956Z,12.65
2022-11-24T16:46:07.625Z,16.52
2022-11-24T16:48:37.994Z,7.72
2022-11-24T16:51:10.610Z,8.75
2022-11-24T16:53:40.269Z,9.75
2022-11-24T16:56:08.992Z,7.53
2022-11-24T16:58:45.942Z,8.40
2022-11-24T17:01:15.720Z,7.63
2022-11-24T17:03:42.662Z,6.97
2022-11-24T17:06:12.695Z,7.60
2022-11-24T17:08:40.583Z,5.88
2022-11-24T17:11:13.908Z,5.80
2022-11-24T17:13:42.188Z,6.50
2022-11-24T17:16:11.714Z,8.20
2022-11-24T17:18:39.762Z,5.70
2022-11-24T17:21:10.179Z,14.85
2022-11-24T17:23:37.732Z,8.85
2022-11-24T17:26:07.508Z,4.93
2022-11-24T17:28:36.251Z,5.07
2022-11-24T17:31:07.451Z,4.75
2022-11-24T17:33:35.523Z,7.05
2022-11-24T17:36:04.210Z,7.93
2022-11-24T17:38:31.444Z,8.07
2022-11-24T17:40:58.791Z,8.63
2022-11-24T17:43:27.502Z,9.45
2022-11-24T17:45:56.179Z,7.72
2022-11-24T17:48:24.519Z,6.97
2022-11-24T17:51:12.601Z,9.48
2022-11-24T17:53:40.966Z,53.05
2022-11-24T17:56:12.170Z,15.45
2022-11-24T17:58:42.862Z,16.02
2022-11-24T18:01:11.533Z,14.63
2022-11-24T18:03:42.032Z,15.93
2022-11-24T18:06:14.067Z,12.43
2022-11-24T18:08:43.743Z,4.78
2022-11-24T18:11:12.480Z,5.80
2022-11-24T18:13:59.943Z,6.28
2022-11-24T18:16:28.363Z,7.22
2022-11-24T18:19:07.796Z,4.38
2022-11-24T18:21:36.255Z,5.22
2022-11-24T18:24:03.253Z,5.22
2022-11-24T18:26:30.113Z,6.93
2022-11-24T18:28:57.076Z,5.63
2022-11-24T18:31:24.079Z,6.35
2022-11-24T18:33:50.951Z,6.53
2022-11-24T18:36:23.559Z,6.15
2022-11-24T18:38:53.986Z,6.82
2022-11-24T18:41:21.731Z,7.22
2022-11-24T18:43:48.553Z,5.53
2022-11-24T18:46:18.374Z,6.28
2022-11-24T18:48:48.476Z,5.78
2022-11-24T18:51:15.420Z,8.45
2022-11-24T18:53:43.983Z,5.18
2022-11-24T18:56:17.842Z,18.05
2022-11-24T18:58:45.252Z,12.05
2022-11-24T19:01:13.834Z,8.80
2022-11-24T19:03:48.591Z,6.45
2022-11-24T19:06:19.344Z,4.93
2022-11-24T19:08:46.915Z,5.45
2022-11-24T19:11:28.649Z,6.20
2022-11-24T19:13:56.952Z,6.70
2022-11-24T19:16:25.205Z,6.10
2022-11-24T19:19:02.691Z,5.75
2022-11-24T19:21:48.314Z,6.07
2022-11-24T19:24:15.429Z,7.95
2022-11-24T19:26:42.318Z,8.10
2022-11-24T19:29:10.498Z,4.93
2022-11-24T19:31:39.667Z,7.40
2022-11-24T19:34:08.110Z,6.78
2022-11-24T19:36:35.319Z,5.10
2022-11-24T19:39:07.613Z,3.90
2022-11-24T19:41:34.670Z,5.00
2022-11-24T19:44:01.824Z,4.70
2022-11-24T19:46:29.910Z,4.88
2022-11-24T19:49:00.018Z,5.00
2022-11-24T19:51:31.071Z,5.30
2022-11-24T19:53:58.589Z,5.63
2022-11-24T19:56:27.901Z,5.93
2022-11-24T19:58:56.055Z,9.50
2022-11-24T20:01:31.889Z,5.53
2022-11-24T20:04:01.636Z,5.30
2022-11-24T20:06:31.633Z,4.55
2022-11-24T20:09:00.532Z,5.40
2022-11-24T20:11:28.456Z,5.72
2022-11-24T20:13:56.112Z,3.97
2022-11-24T20:16:29.704Z,6.32
2022-11-24T20:19:02.750Z,6.55
2022-11-24T20:24:06.076Z,6.03
2022-11-24T20:26:39.050Z,6.60
2022-11-24T20:29:09.690Z,5.90
2022-11-24T20:31:39.384Z,5.65
2022-11-24T20:34:07.773Z,8.18
2022-11-24T20:36:37.265Z,10.07
2022-11-24T20:39:07.552Z,9.10
2022-11-24T20:41:37.500Z,8.18
2022-11-24T20:44:10.648Z,8.10
2022-11-24T20:46:38.973Z,9.90
2022-11-24T20:49:08.742Z,7.38
2022-11-24T20:51:39.875Z,8.50
2022-11-24T20:54:08.933Z,6.85
2022-11-24T20:56:39.841Z,7.45
2022-11-24T20:59:07.848Z,6.90
2022-11-24T21:01:40.737Z,6.10
2022-11-24T21:04:09.904Z,7.40
2022-11-24T21:06:37.358Z,11.82
2022-11-24T21:09:05.670Z,8.93
2022-11-24T21:11:33.055Z,11.10
2022-11-24T21:14:00.909Z,16.23
2022-11-24T21:16:30.845Z,16.40
2022-11-24T21:19:03.966Z,17.67
2022-11-24T21:21:35.065Z,17.65
2022-11-24T21:24:03.740Z,19.67
2022-11-24T21:26:31.087Z,18.75
2022-11-24T21:28:58.376Z,19.88
2022-11-24T21:31:26.108Z,29.83
2022-11-24T21:33:54.359Z,16.35
2022-11-24T21:36:23.634Z,14.18
2022-11-24T21:38:52.408Z,14.45
2022-11-24T21:41:20.605Z,13.50
2022-11-24T21:43:47.549Z,13.35
2022-11-24T21:46:14.922Z,12.05
2022-11-24T21:48:48.564Z,12.43
2022-11-24T21:51:17.724Z,8.18
2022-11-24T21:53:45.703Z,7.80
2022-11-24T21:56:18.294Z,7.47
2022-11-24T21:58:53.788Z,12.30
2022-11-24T22:01:23.154Z,18.85
2022-11-24T22:03:50.569Z,18.85
2022-11-24T22:06:19.386Z,19.20
2022-11-24T22:08:47.622Z,19.17
2022-11-24T22:11:17.165Z,18.63
2022-11-24T22:13:44.443Z,8.68
2022-11-24T22:16:14.763Z,10.82
2022-11-24T22:18:43.419Z,14.50
2022-11-24T22:21:13.317Z,18.15
2022-11-24T22:23:40.612Z,20.77
2022-11-24T22:26:16.630Z,24.48
2022-11-24T22:28:44.776Z,23.33
2022-11-24T22:31:15.343Z,20.95
2022-11-24T22:33:43.796Z,20.42
2022-11-24T22:36:12.172Z,20.95
2022-11-24T22:38:39.731Z,22.90
2022-11-24T22:41:12.577Z,21.15
2022-11-24T22:43:41.361Z,13.35
2022-11-24T22:46:14.397Z,8.27
2022-11-24T22:48:41.991Z,11.48
2022-11-24T22:51:17.656Z,9.88
2022-11-24T22:53:49.250Z,26.02
2022-11-24T22:56:17.443Z,9.85
2022-11-24T22:58:44.391Z,5.47
2022-11-24T23:01:14.051Z,6.47
2022-11-24T23:03:41.641Z,6.57
2022-11-24T23:06:22.953Z,6.78
2022-11-24T23:08:50.929Z,9.95
2022-11-24T23:11:29.140Z,9.30
2022-11-24T23:14:00.612Z,7.88
2022-11-24T23:16:29.033Z,8.82
2022-11-24T23:18:58.972Z,13.63
2022-11-24T23:21:28.618Z,15.98
2022-11-24T23:23:56.554Z,14.82
2022-11-24T23:26:28.880Z,12.68
2022-11-24T23:28:56.006Z,10.98
2022-11-24T23:31:27.512Z,12.00
2022-11-24T23:33:55.273Z,10.63
2022-11-24T23:36:22.693Z,10.48
2022-11-24T23:38:50.088Z,13.23
2022-11-24T23:41:23.303Z,13.00
2022-11-24T23:43:50.897Z,10.50
2022-11-24T23:46:23.190Z,12.75
2022-11-24T23:48:51.439Z,15.05
2022-11-24T23:51:24.404Z,21.95
2022-11-24T23:53:52.209Z,18.33
2022-11-24T23:56:26.759Z,31.05
2022-11-24T23:58:53.816Z,18.95
